createdAt,value
2023-04-15T00:00:58.351Z,71.68
2023-04-15T00:03:26.763Z,71.53
2023-04-15T00:05:54.982Z,71.81
2023-04-15T00:08:23.054Z,71.95
2023-04-15T00:10:52.330Z,73.16
2023-04-15T00:13:20.286Z,72.85
2023-04-15T00:15:48.635Z,73.91
2023-04-15T00:18:16.514Z,73.38
2023-04-15T00:20:44.411Z,73.65
2023-04-15T00:23:12.218Z,73.73
2023-04-15T00:25:40.132Z,74.91
2023-04-15T00:28:09.891Z,74.15
2023-04-15T00:30:38.061Z,73.58
2023-04-15T00:33:06.789Z,74.72
2023-04-15T00:35:34.781Z,75.77
2023-04-15T00:38:02.668Z,74.97
2023-04-15T00:40:30.710Z,74.58
2023-04-15T00:42:58.702Z,73.73
2023-04-15T00:45:28.722Z,73.94
2023-04-15T00:47:57.209Z,73.25
2023-04-15T00:50:25.167Z,75.17
2023-04-15T00:52:53.062Z,76.47
2023-04-15T00:55:20.916Z,76.55
2023-04-15T00:57:49.515Z,76.14
2023-04-15T01:00:18.090Z,75.51
2023-04-15T01:02:48.778Z,74.76
2023-04-15T01:05:18.690Z,74.38
2023-04-15T01:07:46.819Z,74.82
2023-04-15T01:10:14.669Z,75.23
2023-04-15T01:12:44.667Z,76.23
2023-04-15T01:15:12.728Z,77.87
2023-04-15T01:17:40.836Z,77.04
2023-04-15T01:20:12.149Z,78.86
2023-04-15T01:22:40.734Z,78.80
2023-04-15T01:25:13.141Z,78.54
2023-04-15T01:27:43.312Z,77.27
2023-04-15T01:30:12.163Z,77.93
2023-04-15T01:32:40.175Z,79.90
2023-04-15T01:35:08.771Z,83.64
2023-04-15T01:37:37.853Z,82.40
2023-04-15T01:40:06.911Z,81.48
2023-04-15T01:42:36.860Z,79.27
2023-04-15T01:45:07.297Z,79.30
2023-04-15T01:47:35.701Z,77.97
2023-04-15T01:50:03.752Z,77.43
2023-04-15T01:52:32.190Z,77.51
2023-04-15T01:55:00.065Z,78.09
2023-04-15T01:57:28.205Z,77.92
2023-04-15T01:59:56.690Z,76.83
2023-04-15T02:02:26.383Z,76.13
2023-04-15T02:04:57.255Z,75.82
2023-04-15T02:07:25.512Z,75.56
2023-04-15T02:09:55.738Z,75.82
2023-04-15T02:12:23.614Z,75.67
2023-04-15T02:14:51.565Z,75.16
2023-04-15T02:17:19.592Z,76.86
2023-04-15T02:19:49.512Z,78.02
2023-04-15T02:22:18.913Z,79.60
2023-04-15T02:24:47.809Z,78.81
2023-04-15T02:27:19.268Z,77.51
2023-04-15T02:29:47.500Z,76.45
2023-04-15T02:32:15.417Z,76.23
2023-04-15T02:34:43.673Z,75.92
2023-04-15T02:37:14.254Z,77.58
2023-04-15T02:39:42.305Z,79.37
2023-04-15T02:42:13.220Z,80.63
2023-04-15T02:44:41.148Z,80.63
2023-04-15T02:47:09.180Z,79.64
2023-04-15T02:49:37.110Z,79.70
2023-04-15T02:52:04.958Z,78.52
2023-04-15T02:54:34.333Z,78.38
2023-04-15T02:57:02.804Z,78.20
2023-04-15T02:59:30.843Z,77.92
2023-04-15T03:02:00.977Z,78.40
2023-04-15T03:04:32.098Z,79.83
2023-04-15T03:07:00.971Z,80.88
2023-04-15T03:09:28.988Z,81.80
2023-04-15T03:11:58.334Z,83.15
2023-04-15T03:14:27.101Z,84.69
2023-04-15T03:16:56.118Z,83.16
2023-04-15T03:19:25.023Z,82.50
2023-04-15T03:21:53.144Z,81.25
2023-04-15T03:24:21.654Z,80.58
2023-04-15T03:26:49.507Z,79.95
2023-04-15T03:29:21.273Z,79.09
2023-04-15T03:31:49.708Z,78.58
2023-04-15T03:34:18.149Z,80.03
2023-04-15T03:36:47.468Z,81.16
2023-04-15T03:39:15.392Z,81.29
2023-04-15T03:41:43.220Z,80.51
2023-04-15T03:44:11.176Z,79.26
2023-04-15T03:46:40.439Z,78.94
2023-04-15T03:49:08.987Z,78.34
2023-04-15T03:51:36.912Z,78.32
2023-04-15T03:54:04.950Z,77.87
2023-04-15T03:56:32.836Z,78.14
2023-04-15T03:59:01.455Z,80.25
2023-04-15T04:01:29.592Z,81.99
2023-04-15T04:03:58.898Z,82.41
2023-04-15T04:06:27.424Z,82.54
2023-04-15T04:08:55.903Z,81.32
2023-04-15T04:11:23.674Z,80.02
2023-04-15T04:13:51.596Z,79.51
2023-04-15T04:16:19.584Z,80.45
2023-04-15T04:18:47.752Z,81.94
2023-04-15T04:21:17.204Z,83.13
2023-04-15T04:23:45.492Z,85.41
2023-04-15T04:26:13.452Z,85.63
2023-04-15T04:28:41.600Z,83.92
2023-04-15T04:31:09.487Z,83.72
2023-04-15T04:33:37.344Z,83.44
2023-04-15T04:36:05.973Z,84.73
2023-04-15T04:38:35.316Z,85.07
2023-04-15T04:41:03.317Z,84.44
2023-04-15T04:43:31.943Z,82.80
2023-04-15T04:45:59.815Z,81.75
2023-04-15T04:48:27.612Z,81.36
2023-04-15T04:50:55.733Z,83.28
2023-04-15T04:53:23.562Z,84.99
2023-04-15T04:55:53.134Z,84.14
2023-04-15T04:58:21.421Z,82.90
2023-04-15T05:00:49.422Z,81.95
2023-04-15T05:03:17.603Z,81.11
2023-04-15T05:05:45.869Z,81.06
2023-04-15T05:08:13.751Z,80.54
2023-04-15T05:10:41.812Z,79.48
2023-04-15T05:13:11.095Z,78.89
2023-04-15T05:15:41.213Z,78.55
2023-04-15T05:18:09.138Z,77.56
2023-04-15T05:20:37.060Z,76.82
2023-04-15T05:23:04.924Z,77.34
2023-04-15T05:25:32.750Z,77.10
2023-04-15T05:28:00.601Z,76.92
2023-04-15T05:30:30.656Z,77.00
2023-04-15T05:32:58.724Z,77.46
2023-04-15T05:35:27.427Z,78.45
2023-04-15T05:37:55.442Z,78.58
2023-04-15T05:40:23.456Z,77.88
2023-04-15T05:42:51.332Z,77.78
2023-04-15T05:45:19.350Z,77.47
2023-04-15T05:47:50.434Z,78.91
2023-04-15T05:50:18.599Z,78.46
2023-04-15T05:52:46.923Z,77.33
2023-04-15T05:55:15.562Z,76.19
2023-04-15T05:57:43.573Z,76.24
2023-04-15T06:00:13.193Z,75.15
2023-04-15T06:02:41.784Z,73.94
2023-04-15T06:05:11.897Z,73.76
2023-04-15T06:07:40.122Z,72.72
2023-04-15T06:10:09.263Z,72.42
2023-04-15T06:12:37.404Z,72.70
2023-04-15T06:15:06.725Z,72.84
2023-04-15T06:17:34.921Z,72.04
2023-04-15T06:20:03.790Z,73.12
2023-04-15T06:22:33.208Z,73.24
2023-04-15T06:25:01.256Z,72.90
2023-04-15T06:27:29.263Z,71.66
2023-04-15T06:29:57.171Z,70.76
2023-04-15T06:32:25.330Z,70.15
2023-04-15T06:34:53.425Z,69.67
2023-04-15T06:37:21.467Z,68.28
2023-04-15T06:39:51.081Z,67.73
2023-04-15T06:42:19.464Z,68.18
2023-04-15T06:44:47.996Z,65.85
2023-04-15T06:47:16.098Z,66.69
2023-04-15T06:49:44.975Z,66.78
2023-04-15T06:52:16.784Z,64.28
2023-04-15T06:54:45.200Z,65.11
2023-04-15T06:57:14.721Z,65.54
2023-04-15T06:59:43.685Z,65.75
2023-04-15T07:02:15.272Z,64.72
2023-04-15T07:04:43.216Z,63.49
2023-04-15T07:07:11.248Z,63.88
2023-04-15T07:09:39.566Z,65.61
2023-04-15T07:12:07.713Z,64.15
2023-04-15T07:14:38.370Z,62.32
2023-04-15T07:17:06.800Z,62.79
2023-04-15T07:19:36.163Z,63.56
2023-04-15T07:22:05.333Z,63.08
2023-04-15T07:24:34.439Z,65.92
2023-04-15T07:27:06.352Z,65.13
2023-04-15T07:29:38.120Z,64.37
2023-04-15T07:32:08.937Z,62.71
2023-04-15T07:34:39.118Z,61.57
2023-04-15T07:37:07.785Z,60.31
2023-04-15T07:39:40.786Z,59.91
2023-04-15T07:42:09.845Z,59.21
2023-04-15T07:44:45.788Z,57.23
2023-04-15T07:47:27.272Z,55.14
2023-04-15T07:49:58.755Z,55.53
2023-04-15T07:52:29.953Z,55.60
2023-04-15T07:55:23.916Z,54.92
2023-04-15T07:58:06.638Z,56.16
2023-04-15T08:00:40.953Z,52.75
2023-04-15T08:03:12.665Z,53.83
2023-04-15T08:05:52.001Z,53.49
2023-04-15T08:08:48.477Z,52.03
2023-04-15T08:11:35.001Z,52.48
2023-04-15T08:14:08.905Z,51.34
2023-04-15T08:16:41.439Z,50.28
2023-04-15T08:19:09.480Z,50.90
2023-04-15T08:21:37.898Z,51.08
2023-04-15T08:24:07.064Z,51.14
2023-04-15T08:26:37.667Z,50.32
2023-04-15T08:29:11.848Z,51.00
2023-04-15T08:31:42.171Z,49.96
2023-04-15T08:34:11.150Z,49.70
2023-04-15T08:36:43.090Z,46.94
2023-04-15T08:39:12.479Z,50.01
2023-04-15T08:41:41.884Z,48.05
2023-04-15T08:44:11.977Z,45.71
2023-04-15T08:46:43.425Z,47.06
2023-04-15T08:49:16.216Z,46.00
2023-04-15T08:51:45.423Z,46.77
2023-04-15T08:54:19.623Z,46.92
2023-04-15T08:56:55.106Z,48.11
2023-04-15T08:59:23.935Z,48.75
2023-04-15T09:02:02.096Z,45.89
2023-04-15T09:04:43.609Z,50.55
2023-04-15T09:07:13.535Z,45.59
2023-04-15T09:09:50.209Z,46.53
2023-04-15T09:12:40.023Z,42.91
2023-04-15T09:15:12.778Z,45.79
2023-04-15T09:17:47.814Z,44.82
2023-04-15T09:20:20.153Z,44.74
2023-04-15T09:22:56.946Z,42.69
2023-04-15T09:25:29.652Z,44.44
2023-04-15T09:28:05.815Z,41.99
2023-04-15T09:30:50.877Z,42.94
2023-04-15T09:33:23.129Z,43.83
2023-04-15T09:36:03.017Z,43.78
2023-04-15T09:38:34.307Z,41.44
2023-04-15T09:41:04.446Z,43.13
2023-04-15T09:43:40.918Z,42.05
2023-04-15T09:46:14.941Z,44.28
2023-04-15T09:48:46.140Z,44.38
2023-04-15T09:51:16.193Z,46.20
2023-04-15T09:53:58.053Z,45.77
2023-04-15T09:56:33.778Z,45.55
2023-04-15T09:59:01.912Z,44.34
2023-04-15T10:01:38.685Z,47.46
2023-04-15T10:04:12.579Z,45.63
2023-04-15T10:06:41.901Z,46.20
2023-04-15T10:09:11.150Z,47.64
2023-04-15T10:11:40.813Z,46.67
2023-04-15T10:14:12.099Z,45.49
2023-04-15T10:16:46.543Z,44.63
2023-04-15T10:19:20.021Z,44.48
2023-04-15T10:21:49.565Z,45.37
2023-04-15T10:24:18.920Z,47.11
2023-04-15T10:26:48.405Z,46.03
2023-04-15T10:29:19.460Z,45.59
2023-04-15T10:31:49.269Z,43.94
2023-04-15T10:34:21.167Z,43.92
2023-04-15T10:36:52.372Z,44.08
2023-04-15T10:39:45.735Z,44.78
2023-04-15T10:42:16.366Z,44.71
2023-04-15T10:44:47.970Z,46.07
2023-04-15T10:47:20.270Z,44.22
2023-04-15T10:49:52.997Z,44.61
2023-04-15T10:52:26.193Z,46.16
2023-04-15T10:55:06.163Z,46.37
2023-04-15T10:57:46.417Z,46.21
2023-04-15T11:00:17.701Z,45.44
2023-04-15T11:02:51.400Z,44.61
2023-04-15T11:05:24.037Z,43.32
2023-04-15T11:07:57.053Z,43.35
2023-04-15T11:10:53.914Z,44.61
2023-04-15T11:13:25.891Z,45.42
2023-04-15T11:16:01.092Z,45.56
2023-04-15T11:18:36.078Z,46.94
2023-04-15T11:21:12.219Z,45.46
2023-04-15T11:23:44.348Z,44.73
2023-04-15T11:26:13.352Z,44.15
2023-04-15T11:28:43.292Z,42.17
2023-04-15T11:31:13.311Z,43.26
2023-04-15T11:33:55.105Z,42.89
2023-04-15T11:36:28.624Z,44.21
2023-04-15T11:39:00.215Z,46.69
2023-04-15T11:41:31.845Z,47.10
2023-04-15T11:44:00.866Z,48.53
2023-04-15T11:46:37.700Z,47.74
2023-04-15T11:49:27.514Z,46.92
2023-04-15T11:51:57.970Z,46.74
2023-04-15T11:54:28.203Z,44.67
2023-04-15T11:56:57.654Z,43.71
2023-04-15T11:59:30.229Z,44.39
2023-04-15T12:02:14.514Z,44.21
2023-04-15T12:04:54.679Z,44.57
2023-04-15T12:07:25.679Z,46.27
2023-04-15T12:09:56.821Z,46.82
2023-04-15T12:12:29.349Z,48.57
2023-04-15T12:15:08.890Z,47.96
2023-04-15T12:17:51.123Z,48.03
2023-04-15T12:20:28.065Z,48.47
2023-04-15T12:23:07.984Z,53.78
2023-04-15T12:25:37.634Z,65.38
2023-04-15T12:28:13.955Z,71.49
2023-04-15T12:30:51.703Z,72.04
2023-04-15T12:33:21.946Z,75.72
2023-04-15T12:35:52.662Z,75.49
2023-04-15T12:38:22.600Z,75.47
2023-04-15T12:40:50.507Z,75.22
2023-04-15T12:43:18.396Z,72.77
2023-04-15T12:45:46.795Z,76.08
2023-04-15T12:48:14.815Z,72.97
2023-04-15T12:50:42.762Z,74.03
2023-04-15T12:53:13.726Z,75.26
2023-04-15T12:55:43.818Z,71.85
2023-04-15T12:58:12.505Z,72.14
2023-04-15T13:00:40.727Z,69.59
2023-04-15T13:03:08.685Z,66.05
2023-04-15T13:05:39.242Z,65.17
2023-04-15T13:08:07.906Z,60.86
2023-04-15T13:10:38.123Z,56.04
2023-04-15T13:13:07.966Z,58.10
2023-04-15T13:15:36.447Z,56.98
2023-04-15T13:18:04.620Z,59.39
2023-04-15T13:20:32.481Z,57.50
2023-04-15T13:23:03.015Z,57.30
2023-04-15T13:25:32.964Z,56.01
2023-04-15T13:28:02.924Z,52.25
2023-04-15T13:30:33.836Z,52.91
2023-04-15T13:33:02.550Z,50.88
2023-04-15T13:35:31.212Z,50.97
2023-04-15T13:38:05.662Z,49.15
2023-04-15T13:40:41.522Z,49.21
2023-04-15T13:43:12.544Z,50.34
2023-04-15T13:45:43.594Z,47.12
2023-04-15T13:48:16.614Z,46.63
2023-04-15T13:50:45.653Z,47.16
2023-04-15T13:53:17.694Z,47.04
2023-04-15T13:55:46.340Z,47.46
2023-04-15T13:58:14.302Z,46.33
2023-04-15T14:00:43.696Z,47.16
2023-04-15T14:03:12.170Z,47.34
2023-04-15T14:05:40.694Z,46.77
2023-04-15T14:08:09.497Z,48.00
2023-04-15T14:10:38.586Z,47.75
2023-04-15T14:13:08.015Z,47.52
2023-04-15T14:15:36.848Z,45.16
2023-04-15T14:18:08.340Z,45.55
2023-04-15T14:20:37.312Z,44.95
2023-04-15T14:23:10.126Z,45.54
2023-04-15T14:25:43.598Z,44.10
2023-04-15T14:28:15.459Z,45.29
2023-04-15T14:30:43.989Z,45.28
2023-04-15T14:33:14.206Z,45.19
2023-04-15T14:35:42.082Z,46.95
2023-04-15T14:38:11.280Z,46.38
2023-04-15T14:40:39.827Z,47.78
2023-04-15T14:43:10.594Z,47.90
2023-04-15T14:45:46.699Z,48.35
2023-04-15T14:48:40.714Z,49.49
2023-04-15T14:51:28.041Z,49.04
2023-04-15T14:54:21.879Z,49.07
2023-04-15T14:56:55.979Z,48.41
2023-04-15T14:59:28.002Z,49.19
2023-04-15T15:01:56.908Z,50.35
2023-04-15T15:04:26.894Z,50.61
2023-04-15T15:06:55.917Z,50.88
2023-04-15T15:09:27.534Z,51.32
2023-04-15T15:11:57.034Z,51.14
2023-04-15T15:14:25.740Z,52.03
2023-04-15T15:16:54.074Z,51.97
2023-04-15T15:19:24.080Z,51.85
2023-04-15T15:21:55.100Z,52.33
2023-04-15T15:24:57.417Z,51.99
2023-04-15T15:27:46.704Z,53.18
2023-04-15T15:30:15.591Z,52.54
2023-04-15T15:32:45.037Z,51.38
2023-04-15T15:35:15.817Z,52.24
2023-04-15T15:37:47.022Z,52.00
2023-04-15T15:40:15.440Z,51.51
2023-04-15T15:42:43.298Z,51.88
2023-04-15T15:45:26.629Z,52.43
2023-04-15T15:47:57.094Z,52.80
2023-04-15T15:50:26.926Z,52.94
2023-04-15T15:52:58.573Z,53.41
2023-04-15T15:55:27.370Z,55.04
2023-04-15T15:58:03.460Z,55.82
2023-04-15T16:03:32.828Z,61.76
2023-04-15T16:06:02.265Z,63.82
2023-04-15T16:08:33.282Z,66.58
2023-04-15T16:11:03.776Z,67.91
2023-04-15T16:13:37.267Z,69.40
2023-04-15T16:16:12.545Z,71.19
2023-04-15T16:18:43.506Z,73.21
2023-04-15T16:21:11.511Z,74.04
2023-04-15T16:23:41.630Z,75.43
2023-04-15T16:26:10.574Z,74.77
2023-04-15T16:28:39.260Z,75.80
2023-04-15T16:31:07.656Z,77.39
2023-04-15T16:33:36.235Z,76.38
2023-04-15T16:36:07.960Z,75.78
2023-04-15T16:38:40.995Z,76.60
2023-04-15T16:41:09.679Z,76.90
2023-04-15T16:43:40.653Z,77.69
2023-04-15T16:46:08.941Z,78.61
2023-04-15T16:48:38.603Z,78.03
2023-04-15T16:51:07.932Z,78.46
2023-04-15T16:53:36.637Z,80.34
2023-04-15T16:56:08.469Z,81.26
2023-04-15T16:58:36.711Z,80.63
2023-04-15T17:01:04.632Z,80.60
2023-04-15T17:03:37.002Z,79.64
2023-04-15T17:06:05.484Z,79.77
2023-04-15T17:08:33.474Z,78.59
2023-04-15T17:11:01.950Z,80.89
2023-04-15T17:13:31.706Z,82.62
2023-04-15T17:15:59.655Z,82.92
2023-04-15T17:18:28.085Z,83.00
2023-04-15T17:20:56.498Z,82.68
2023-04-15T17:23:24.528Z,81.87
2023-04-15T17:25:53.410Z,83.41
2023-04-15T17:28:21.485Z,83.98
2023-04-15T17:30:51.042Z,83.91
2023-04-15T17:33:50.545Z,83.65
2023-04-15T17:36:08.768Z,84.31
2023-04-15T17:38:36.680Z,83.22
2023-04-15T17:41:08.021Z,85.13
2023-04-15T17:43:36.553Z,84.26
2023-04-15T17:46:08.017Z,83.33
2023-04-15T17:49:05.304Z,85.56
2023-04-15T17:51:33.789Z,85.02
2023-04-15T17:54:08.353Z,83.93
2023-04-15T17:56:37.158Z,82.72
2023-04-15T17:59:07.476Z,82.30
2023-04-15T18:01:37.262Z,83.90
2023-04-15T18:04:06.609Z,84.62
2023-04-15T18:06:36.837Z,82.72
2023-04-15T18:09:05.730Z,83.09
2023-04-15T18:11:34.467Z,82.02
2023-04-15T18:14:04.668Z,82.19
2023-04-15T18:16:33.332Z,82.10
2023-04-15T18:19:02.905Z,82.34
2023-04-15T18:21:31.456Z,81.59
2023-04-15T18:23:59.713Z,82.08
2023-04-15T18:26:29.252Z,82.50
2023-04-15T18:28:57.476Z,83.19
2023-04-15T18:31:25.509Z,84.10
2023-04-15T18:33:57.025Z,84.75
2023-04-15T18:36:27.530Z,84.80
2023-04-15T18:38:55.908Z,85.71
2023-04-15T18:41:25.399Z,86.18
2023-04-15T18:43:54.807Z,85.54
2023-04-15T18:46:22.922Z,85.42
2023-04-15T18:48:51.058Z,85.57
2023-04-15T18:51:19.720Z,85.45
2023-04-15T18:53:50.297Z,85.94
2023-04-15T18:56:19.289Z,85.71
2023-04-15T18:59:26.434Z,86.76
2023-04-15T19:01:42.862Z,87.15
2023-04-15T19:04:11.956Z,88.72
2023-04-15T19:06:41.746Z,88.46
2023-04-15T19:09:14.315Z,90.51
2023-04-15T19:11:43.785Z,89.02
2023-04-15T19:14:12.510Z,89.70
2023-04-15T19:16:42.811Z,89.11
2023-04-15T19:19:14.452Z,88.82
2023-04-15T19:21:42.919Z,90.47
2023-04-15T19:24:11.478Z,89.53
2023-04-15T19:26:41.214Z,90.10
2023-04-15T19:29:09.358Z,89.63
2023-04-15T19:31:37.810Z,89.42
2023-04-15T19:34:06.491Z,88.29
2023-04-15T19:36:34.963Z,90.65
2023-04-15T19:39:03.467Z,90.81
2023-04-15T19:41:31.874Z,89.80
2023-04-15T19:44:01.347Z,90.71
2023-04-15T19:46:32.412Z,92.41
2023-04-15T19:49:01.396Z,90.80
2023-04-15T19:51:29.941Z,92.10
2023-04-15T19:53:59.576Z,91.80
2023-04-15T19:56:27.662Z,90.21
2023-04-15T19:58:56.880Z,89.73
2023-04-15T20:01:27.240Z,90.21
2023-04-15T20:03:55.905Z,90.22
2023-04-15T20:06:24.159Z,90.20
2023-04-15T20:08:53.034Z,90.38
2023-04-15T20:11:22.263Z,89.95
2023-04-15T20:13:51.174Z,90.75
2023-04-15T20:16:19.648Z,90.17
2023-04-15T20:18:49.287Z,91.50
2023-04-15T20:21:19.963Z,90.55
2023-04-15T20:23:54.358Z,90.39
2023-04-15T20:26:29.915Z,92.19
2023-04-15T20:29:00.642Z,92.52
2023-04-15T20:31:29.202Z,91.61
2023-04-15T20:33:58.902Z,92.42
2023-04-15T20:36:27.683Z,91.78
2023-04-15T20:38:55.680Z,91.27
2023-04-15T20:41:23.973Z,91.11
2023-04-15T20:43:52.611Z,91.61
2023-04-15T20:46:21.777Z,90.59
2023-04-15T20:48:50.709Z,91.60
2023-04-15T20:51:24.889Z,93.56
2023-04-15T20:53:52.964Z,92.15
2023-04-15T20:56:21.376Z,91.37
2023-04-15T20:58:49.244Z,92.56
2023-04-15T21:01:17.276Z,93.59
2023-04-15T21:03:46.446Z,93.04
2023-04-15T21:06:15.140Z,93.64
2023-04-15T21:08:45.112Z,93.49
2023-04-15T21:11:18.903Z,93.73
2023-04-15T21:13:57.109Z,94.10
2023-04-15T21:16:25.327Z,95.04
2023-04-15T21:18:54.600Z,93.61
2023-04-15T21:21:23.112Z,94.65
2023-04-15T21:23:52.719Z,93.42
2023-04-15T21:26:21.056Z,94.11
2023-04-15T21:28:49.835Z,93.88
2023-04-15T21:31:18.296Z,93.21
2023-04-15T21:33:47.920Z,93.48
2023-04-15T21:36:16.153Z,94.88
2023-04-15T21:38:44.050Z,93.75
2023-04-15T21:41:13.523Z,93.79
2023-04-15T21:43:41.456Z,94.94
2023-04-15T21:46:22.294Z,93.81
2023-04-15T21:48:52.065Z,93.86
2023-04-15T21:51:20.119Z,93.40
2023-04-15T21:53:48.476Z,93.77
2023-04-15T21:56:17.741Z,93.41
2023-04-15T21:58:45.605Z,94.83
2023-04-15T22:01:14.326Z,94.07
2023-04-15T22:03:42.744Z,94.48
2023-04-15T22:06:11.248Z,93.21
2023-04-15T22:08:52.405Z,93.15
2023-04-15T22:11:28.220Z,95.07
2023-04-15T22:13:57.665Z,95.34
2023-04-15T22:16:26.291Z,94.27
2023-04-15T22:18:54.677Z,94.09
2023-04-15T22:21:22.767Z,95.02
2023-04-15T22:23:51.064Z,94.71
2023-04-15T22:26:19.196Z,94.48
2023-04-15T22:28:48.541Z,95.58
2023-04-15T22:31:16.497Z,95.35
2023-04-15T22:33:44.467Z,94.89
2023-04-15T22:36:13.652Z,95.59
2023-04-15T22:38:41.687Z,94.06
2023-04-15T22:41:10.439Z,95.83
2023-04-15T22:43:38.465Z,94.99
2023-04-15T22:46:07.999Z,93.82
2023-04-15T22:48:36.107Z,93.66
2023-04-15T22:51:04.836Z,93.85
2023-04-15T22:53:33.299Z,94.32
2023-04-15T22:56:02.724Z,93.48
2023-04-15T22:58:33.053Z,93.45
2023-04-15T23:01:01.264Z,94.30
2023-04-15T23:03:31.047Z,93.84
2023-04-15T23:05:59.042Z,95.44
2023-04-15T23:08:26.859Z,94.58
2023-04-15T23:10:54.731Z,93.90
2023-04-15T23:13:22.609Z,95.68
2023-04-15T23:15:50.696Z,95.95
2023-04-15T23:18:18.749Z,95.32
2023-04-15T23:20:48.351Z,95.44
2023-04-15T23:23:16.606Z,95.39
2023-04-15T23:25:44.777Z,94.83
2023-04-15T23:28:13.113Z,94.66
2023-04-15T23:30:41.228Z,94.17
2023-04-15T23:33:09.297Z,93.07
2023-04-15T23:35:37.877Z,93.99
2023-04-15T23:38:07.090Z,94.22
2023-04-15T23:40:35.030Z,93.80
2023-04-15T23:43:02.907Z,93.71
2023-04-15T23:45:30.928Z,93.55
2023-04-15T23:47:59.180Z,93.96
2023-04-15T23:50:28.171Z,94.14
2023-04-15T23:52:56.383Z,95.71
2023-04-15T23:55:25.964Z,95.50
2023-04-15T23:57:53.990Z,94.19
